createdAt,value
2023-03-27T00:10:37.623Z,968.11
2023-03-27T00:25:39.265Z,968.31
2023-03-27T00:40:40.930Z,968.71
2023-03-27T00:55:42.684Z,968.93
2023-03-27T01:10:44.320Z,969.24
2023-03-27T01:25:45.974Z,969.66
2023-03-27T01:40:47.615Z,969.87
2023-03-27T01:55:49.230Z,969.98
2023-03-27T02:10:50.864Z,970.1
2023-03-27T02:25:52.547Z,970.27
2023-03-27T02:40:54.260Z,970.32
2023-03-27T02:55:55.993Z,970.49
2023-03-27T03:10:57.843Z,970.59
2023-03-27T03:25:59.529Z,970.82
2023-03-27T03:41:01.182Z,970.93
2023-03-27T03:56:02.851Z,971.01
2023-03-27T04:11:04.515Z,971.12
2023-03-27T04:26:06.246Z,971.22
2023-03-27T04:41:07.886Z,971.35
2023-03-27T04:56:09.520Z,971.41
2023-03-27T05:11:11.199Z,971.45
2023-03-27T05:26:12.847Z,971.54
2023-03-27T05:41:14.535Z,971.57
2023-03-27T05:56:16.196Z,971.63
2023-03-27T06:11:17.841Z,971.66
2023-03-27T06:26:19.467Z,971.73
2023-03-27T06:41:21.112Z,971.78
2023-03-27T06:56:22.858Z,971.89
2023-03-27T07:11:24.542Z,972.06
2023-03-27T07:26:26.182Z,972.08
2023-03-27T07:41:27.853Z,972.12
2023-03-27T07:56:29.525Z,972.23
2023-03-27T08:11:31.327Z,972.3
2023-03-27T08:26:32.984Z,972.35
2023-03-27T08:41:34.645Z,972.44
2023-03-27T08:56:36.353Z,972.56
2023-03-27T09:11:38.182Z,972.69
2023-03-27T09:26:40.194Z,972.69
2023-03-27T09:41:42.063Z,972.74
2023-03-27T09:56:44.008Z,972.75
2023-03-27T10:11:45.699Z,972.71
2023-03-27T10:26:47.367Z,972.81
2023-03-27T10:41:49.017Z,972.85
2023-03-27T10:56:50.734Z,972.98
2023-03-27T11:11:52.609Z,973.17
2023-03-27T11:26:54.269Z,973.2
2023-03-27T11:41:55.918Z,973.17
2023-03-27T11:56:57.621Z,973.32
2023-03-27T12:11:59.468Z,973.28
2023-03-27T12:27:01.224Z,973.26
2023-03-27T12:42:02.863Z,973.34
2023-03-27T12:57:04.641Z,973.31
2023-03-27T13:12:06.392Z,973.24
2023-03-27T13:27:08.046Z,973.38
2023-03-27T13:42:09.717Z,973.35
2023-03-27T13:57:11.414Z,973.52
2023-03-27T14:12:13.114Z,973.58
2023-03-27T14:27:14.779Z,973.7
2023-03-27T14:42:16.469Z,973.76
2023-03-27T14:57:18.167Z,973.72
2023-03-27T15:12:19.850Z,973.83
2023-03-27T15:27:21.486Z,973.91
2023-03-27T15:42:23.136Z,973.84
2023-03-27T15:57:24.849Z,973.8
2023-03-27T16:12:26.575Z,973.74
2023-03-27T16:27:28.218Z,973.67
2023-03-27T16:42:29.848Z,973.61
2023-03-27T16:57:31.665Z,973.47
2023-03-27T17:12:33.293Z,973.34
2023-03-27T17:27:34.915Z,973.21
2023-03-27T17:42:36.557Z,973.06
2023-03-27T17:57:38.193Z,972.97
2023-03-27T18:12:39.862Z,972.91
2023-03-27T18:27:41.526Z,972.91
2023-03-27T18:42:43.227Z,972.76
2023-03-27T18:57:44.895Z,972.62
2023-03-27T19:12:46.538Z,972.55
2023-03-27T19:27:48.221Z,972.45
2023-03-27T19:42:49.886Z,972.44
2023-03-27T19:57:51.603Z,972.29
2023-03-27T20:12:53.243Z,972.08
2023-03-27T20:27:54.902Z,971.98
2023-03-27T20:42:56.558Z,971.75
2023-03-27T20:57:58.197Z,971.51
2023-03-27T21:12:59.830Z,971.37
2023-03-27T21:28:01.514Z,971.29
2023-03-27T21:43:03.230Z,970.88
2023-03-27T21:58:04.903Z,970.74
2023-03-27T22:13:06.617Z,970.56
2023-03-27T22:28:08.275Z,970.29
2023-03-27T22:43:09.908Z,970.16
2023-03-27T22:58:11.529Z,969.92
2023-03-27T23:13:13.162Z,969.67
2023-03-27T23:28:14.782Z,969.59
2023-03-27T23:43:16.405Z,969.55
2023-03-27T23:58:18.027Z,969.44
